sensor_id;sensor_type;location;lat;lon;timestamp;P1;durP1;ratioP1;P2;durP2;ratioP2
47053;SDS011;32811;52.382;5.270;2022-12-31T00:01:33;4.97;;;0.90;;
47053;SDS011;32811;52.382;5.270;2022-12-31T00:04:00;5.57;;;1.10;;
47053;SDS011;32811;52.382;5.270;2022-12-31T00:06:29;1.13;;;0.50;;
47053;SDS011;32811;52.382;5.270;2022-12-31T00:08:58;1.65;;;0.70;;
47053;SDS011;32811;52.382;5.270;2022-12-31T00:11:27;4.50;;;1.00;;
47053;SDS011;32811;52.382;5.270;2022-12-31T00:13:55;5.13;;;0.60;;
47053;SDS011;32811;52.382;5.270;2022-12-31T00:16:36;2.13;;;0.73;;
47053;SDS011;32811;52.382;5.270;2022-12-31T00:19:06;1.38;;;0.50;;
47053;SDS011;32811;52.382;5.270;2022-12-31T00:21:35;2.47;;;0.40;;
47053;SDS011;32811;52.382;5.270;2022-12-31T00:24:02;3.13;;;0.52;;
47053;SDS011;32811;52.382;5.270;2022-12-31T00:26:30;1.30;;;0.30;;
47053;SDS011;32811;52.382;5.270;2022-12-31T00:28:58;2.85;;;0.43;;
47053;SDS011;32811;52.382;5.270;2022-12-31T00:31:27;3.05;;;0.40;;
47053;SDS011;32811;52.382;5.270;2022-12-31T00:33:57;1.17;;;0.22;;
47053;SDS011;32811;52.382;5.270;2022-12-31T00:36:25;0.40;;;0.20;;
47053;SDS011;32811;52.382;5.270;2022-12-31T00:38:57;1.02;;;0.20;;
47053;SDS011;32811;52.382;5.270;2022-12-31T00:41:25;2.33;;;0.40;;
47053;SDS011;32811;52.382;5.270;2022-12-31T00:43:53;0.90;;;0.20;;
47053;SDS011;32811;52.382;5.270;2022-12-31T00:46:20;2.78;;;0.43;;
47053;SDS011;32811;52.382;5.270;2022-12-31T00:48:47;1.65;;;0.47;;
47053;SDS011;32811;52.382;5.270;2022-12-31T00:51:15;3.03;;;0.60;;
47053;SDS011;32811;52.382;5.270;2022-12-31T00:53:43;1.00;;;0.20;;
47053;SDS011;32811;52.382;5.270;2022-12-31T00:56:13;2.33;;;0.45;;
47053;SDS011;32811;52.382;5.270;2022-12-31T00:58:42;2.40;;;0.75;;
47053;SDS011;32811;52.382;5.270;2022-12-31T01:01:09;8.10;;;0.50;;
47053;SDS011;32811;52.382;5.270;2022-12-31T01:03:38;2.92;;;0.52;;
47053;SDS011;32811;52.382;5.270;2022-12-31T01:06:05;2.92;;;0.30;;
47053;SDS011;32811;52.382;5.270;2022-12-31T01:08:32;5.45;;;0.35;;
47053;SDS011;32811;52.382;5.270;2022-12-31T01:10:59;2.25;;;0.52;;
47053;SDS011;32811;52.382;5.270;2022-12-31T01:13:46;5.45;;;1.38;;
47053;SDS011;32811;52.382;5.270;2022-12-31T01:16:31;4.07;;;0.80;;
47053;SDS011;32811;52.382;5.270;2022-12-31T01:19:00;12.80;;;2.95;;
47053;SDS011;32811;52.382;5.270;2022-12-31T01:21:29;4.43;;;0.57;;
47053;SDS011;32811;52.382;5.270;2022-12-31T01:23:56;4.57;;;0.98;;
47053;SDS011;32811;52.382;5.270;2022-12-31T01:26:24;4.45;;;0.45;;
47053;SDS011;32811;52.382;5.270;2022-12-31T01:28:51;3.33;;;0.68;;
47053;SDS011;32811;52.382;5.270;2022-12-31T01:31:18;3.22;;;0.77;;
47053;SDS011;32811;52.382;5.270;2022-12-31T01:33:46;4.63;;;0.55;;
47053;SDS011;32811;52.382;5.270;2022-12-31T01:36:17;5.78;;;1.27;;
47053;SDS011;32811;52.382;5.270;2022-12-31T01:38:51;2.25;;;0.43;;
47053;SDS011;32811;52.382;5.270;2022-12-31T01:41:21;5.43;;;1.42;;
47053;SDS011;32811;52.382;5.270;2022-12-31T01:43:54;5.68;;;1.10;;
47053;SDS011;32811;52.382;5.270;2022-12-31T01:46:40;6.15;;;0.95;;
47053;SDS011;32811;52.382;5.270;2022-12-31T01:57:04;3.55;;;0.70;;
47053;SDS011;32811;52.382;5.270;2022-12-31T01:59:33;7.97;;;1.05;;
47053;SDS011;32811;52.382;5.270;2022-12-31T02:02:00;4.53;;;0.75;;
47053;SDS011;32811;52.382;5.270;2022-12-31T02:04:27;5.40;;;1.08;;
47053;SDS011;32811;52.382;5.270;2022-12-31T02:06:55;7.05;;;0.70;;
47053;SDS011;32811;52.382;5.270;2022-12-31T02:09:25;6.82;;;0.90;;
47053;SDS011;32811;52.382;5.270;2022-12-31T02:11:52;3.00;;;0.70;;
47053;SDS011;32811;52.382;5.270;2022-12-31T02:14:21;4.68;;;1.45;;
47053;SDS011;32811;52.382;5.270;2022-12-31T02:22:46;6.97;;;1.02;;
47053;SDS011;32811;52.382;5.270;2022-12-31T02:28:52;2.72;;;0.40;;
47053;SDS011;32811;52.382;5.270;2022-12-31T02:31:42;3.53;;;0.57;;
47053;SDS011;32811;52.382;5.270;2022-12-31T02:34:17;4.53;;;0.82;;
47053;SDS011;32811;52.382;5.270;2022-12-31T02:36:53;4.55;;;0.63;;
47053;SDS011;32811;52.382;5.270;2022-12-31T02:39:22;3.35;;;1.05;;
47053;SDS011;32811;52.382;5.270;2022-12-31T02:41:50;3.53;;;0.70;;
47053;SDS011;32811;52.382;5.270;2022-12-31T02:49:45;6.22;;;0.95;;
47053;SDS011;32811;52.382;5.270;2022-12-31T02:52:26;5.00;;;0.63;;
47053;SDS011;32811;52.382;5.270;2022-12-31T02:55:13;3.25;;;0.52;;
47053;SDS011;32811;52.382;5.270;2022-12-31T03:00:20;1.65;;;0.60;;
47053;SDS011;32811;52.382;5.270;2022-12-31T03:03:06;13.48;;;1.73;;
47053;SDS011;32811;52.382;5.270;2022-12-31T03:05:36;5.82;;;1.15;;
47053;SDS011;32811;52.382;5.270;2022-12-31T03:08:06;4.82;;;0.50;;
47053;SDS011;32811;52.382;5.270;2022-12-31T03:10:33;3.63;;;1.38;;
47053;SDS011;32811;52.382;5.270;2022-12-31T03:13:00;2.50;;;0.57;;
47053;SDS011;32811;52.382;5.270;2022-12-31T03:15:29;6.80;;;1.65;;
47053;SDS011;32811;52.382;5.270;2022-12-31T03:18:01;7.40;;;1.50;;
47053;SDS011;32811;52.382;5.270;2022-12-31T03:20:31;3.35;;;0.60;;
47053;SDS011;32811;52.382;5.270;2022-12-31T03:23:32;2.40;;;0.50;;
47053;SDS011;32811;52.382;5.270;2022-12-31T03:26:08;4.05;;;0.70;;
47053;SDS011;32811;52.382;5.270;2022-12-31T03:28:36;3.72;;;0.80;;
47053;SDS011;32811;52.382;5.270;2022-12-31T03:31:04;4.15;;;0.68;;
47053;SDS011;32811;52.382;5.270;2022-12-31T03:33:34;9.18;;;0.75;;
47053;SDS011;32811;52.382;5.270;2022-12-31T03:36:07;1.50;;;0.60;;
47053;SDS011;32811;52.382;5.270;2022-12-31T03:38:39;2.67;;;0.70;;
47053;SDS011;32811;52.382;5.270;2022-12-31T03:41:08;7.13;;;1.50;;
47053;SDS011;32811;52.382;5.270;2022-12-31T03:43:35;2.22;;;1.00;;
47053;SDS011;32811;52.382;5.270;2022-12-31T03:46:03;5.20;;;1.00;;
47053;SDS011;32811;52.382;5.270;2022-12-31T03:48:29;2.50;;;1.55;;
47053;SDS011;32811;52.382;5.270;2022-12-31T03:50:56;4.18;;;1.40;;
47053;SDS011;32811;52.382;5.270;2022-12-31T03:53:23;4.65;;;0.80;;
47053;SDS011;32811;52.382;5.270;2022-12-31T03:55:53;5.70;;;0.65;;
47053;SDS011;32811;52.382;5.270;2022-12-31T03:58:20;2.72;;;0.73;;
47053;SDS011;32811;52.382;5.270;2022-12-31T04:00:47;4.70;;;0.85;;
47053;SDS011;32811;52.382;5.270;2022-12-31T04:03:18;1.77;;;0.60;;
47053;SDS011;32811;52.382;5.270;2022-12-31T04:05:50;2.67;;;0.65;;
47053;SDS011;32811;52.382;5.270;2022-12-31T04:08:18;4.03;;;0.75;;
47053;SDS011;32811;52.382;5.270;2022-12-31T04:10:45;3.30;;;0.60;;
47053;SDS011;32811;52.382;5.270;2022-12-31T04:13:12;11.05;;;0.50;;
47053;SDS011;32811;52.382;5.270;2022-12-31T04:15:38;3.20;;;0.80;;
47053;SDS011;32811;52.382;5.270;2022-12-31T04:18:05;2.38;;;0.52;;
47053;SDS011;32811;52.382;5.270;2022-12-31T04:20:32;2.72;;;0.55;;
47053;SDS011;32811;52.382;5.270;2022-12-31T04:22:59;3.72;;;0.75;;
47053;SDS011;32811;52.382;5.270;2022-12-31T04:25:26;2.80;;;1.00;;
47053;SDS011;32811;52.382;5.270;2022-12-31T04:27:52;1.13;;;0.50;;
47053;SDS011;32811;52.382;5.270;2022-12-31T04:30:19;5.80;;;0.47;;
47053;SDS011;32811;52.382;5.270;2022-12-31T04:32:46;4.97;;;0.50;;
47053;SDS011;32811;52.382;5.270;2022-12-31T04:35:12;2.08;;;1.10;;
47053;SDS011;32811;52.382;5.270;2022-12-31T04:37:39;5.38;;;0.90;;
47053;SDS011;32811;52.382;5.270;2022-12-31T04:40:07;1.58;;;0.25;;
47053;SDS011;32811;52.382;5.270;2022-12-31T04:42:34;2.03;;;0.60;;
47053;SDS011;32811;52.382;5.270;2022-12-31T04:45:01;4.30;;;0.32;;
47053;SDS011;32811;52.382;5.270;2022-12-31T04:47:28;3.30;;;0.77;;
47053;SDS011;32811;52.382;5.270;2022-12-31T04:49:55;1.73;;;0.95;;
47053;SDS011;32811;52.382;5.270;2022-12-31T04:52:21;4.68;;;0.88;;
47053;SDS011;32811;52.382;5.270;2022-12-31T04:54:48;5.30;;;0.52;;
47053;SDS011;32811;52.382;5.270;2022-12-31T04:57:14;3.25;;;1.25;;
47053;SDS011;32811;52.382;5.270;2022-12-31T04:59:41;4.63;;;1.20;;
47053;SDS011;32811;52.382;5.270;2022-12-31T05:02:08;3.35;;;0.77;;
47053;SDS011;32811;52.382;5.270;2022-12-31T05:04:35;4.70;;;0.93;;
47053;SDS011;32811;52.382;5.270;2022-12-31T05:07:01;2.72;;;0.80;;
47053;SDS011;32811;52.382;5.270;2022-12-31T05:09:28;3.28;;;0.68;;
47053;SDS011;32811;52.382;5.270;2022-12-31T05:11:56;2.38;;;0.50;;
47053;SDS011;32811;52.382;5.270;2022-12-31T05:14:23;1.83;;;0.50;;
47053;SDS011;32811;52.382;5.270;2022-12-31T05:16:50;2.83;;;1.00;;
47053;SDS011;32811;52.382;5.270;2022-12-31T05:19:17;2.40;;;0.60;;
47053;SDS011;32811;52.382;5.270;2022-12-31T05:21:44;7.68;;;0.95;;
47053;SDS011;32811;52.382;5.270;2022-12-31T05:24:30;1.95;;;0.60;;
47053;SDS011;32811;52.382;5.270;2022-12-31T05:26:57;4.07;;;0.68;;
47053;SDS011;32811;52.382;5.270;2022-12-31T05:29:24;8.38;;;0.85;;
47053;SDS011;32811;52.382;5.270;2022-12-31T05:31:50;5.00;;;0.88;;
47053;SDS011;32811;52.382;5.270;2022-12-31T05:34:17;1.23;;;0.50;;
47053;SDS011;32811;52.382;5.270;2022-12-31T05:36:44;1.95;;;0.50;;
47053;SDS011;32811;52.382;5.270;2022-12-31T05:39:11;0.88;;;0.25;;
47053;SDS011;32811;52.382;5.270;2022-12-31T05:41:37;1.65;;;0.68;;
47053;SDS011;32811;52.382;5.270;2022-12-31T05:44:04;2.25;;;0.30;;
47053;SDS011;32811;52.382;5.270;2022-12-31T05:46:32;0.30;;;0.20;;
47053;SDS011;32811;52.382;5.270;2022-12-31T05:48:59;0.93;;;0.30;;
47053;SDS011;32811;52.382;5.270;2022-12-31T05:51:26;0.93;;;0.35;;
47053;SDS011;32811;52.382;5.270;2022-12-31T05:53:53;1.00;;;0.20;;
47053;SDS011;32811;52.382;5.270;2022-12-31T05:56:19;0.30;;;0.20;;
47053;SDS011;32811;52.382;5.270;2022-12-31T05:58:46;0.20;;;0.13;;
47053;SDS011;32811;52.382;5.270;2022-12-31T06:01:13;0.90;;;0.20;;
47053;SDS011;32811;52.382;5.270;2022-12-31T06:03:42;2.38;;;0.28;;
47053;SDS011;32811;52.382;5.270;2022-12-31T06:06:09;1.65;;;0.17;;
47053;SDS011;32811;52.382;5.270;2022-12-31T06:08:36;0.40;;;0.15;;
47053;SDS011;32811;52.382;5.270;2022-12-31T06:11:04;0.85;;;0.20;;
47053;SDS011;32811;52.382;5.270;2022-12-31T06:13:30;7.43;;;1.48;;
47053;SDS011;32811;52.382;5.270;2022-12-31T06:16:03;0.38;;;0.20;;
47053;SDS011;32811;52.382;5.270;2022-12-31T06:18:31;0.47;;;0.15;;
47053;SDS011;32811;52.382;5.270;2022-12-31T06:20:58;2.05;;;0.20;;
47053;SDS011;32811;52.382;5.270;2022-12-31T06:23:25;0.50;;;0.20;;
47053;SDS011;32811;52.382;5.270;2022-12-31T06:25:52;2.28;;;0.13;;
47053;SDS011;32811;52.382;5.270;2022-12-31T06:28:19;0.50;;;0.20;;
47053;SDS011;32811;52.382;5.270;2022-12-31T06:30:46;1.23;;;0.30;;
47053;SDS011;32811;52.382;5.270;2022-12-31T06:33:13;1.20;;;0.50;;
47053;SDS011;32811;52.382;5.270;2022-12-31T06:35:39;0.38;;;0.20;;
47053;SDS011;32811;52.382;5.270;2022-12-31T06:38:07;1.17;;;0.40;;
47053;SDS011;32811;52.382;5.270;2022-12-31T06:40:35;0.52;;;0.40;;
47053;SDS011;32811;52.382;5.270;2022-12-31T06:43:02;1.15;;;0.50;;
47053;SDS011;32811;52.382;5.270;2022-12-31T06:45:29;1.00;;;0.50;;
47053;SDS011;32811;52.382;5.270;2022-12-31T06:47:55;2.60;;;0.50;;
47053;SDS011;32811;52.382;5.270;2022-12-31T06:50:22;1.13;;;0.47;;
47053;SDS011;32811;52.382;5.270;2022-12-31T06:52:48;0.90;;;0.60;;
47053;SDS011;32811;52.382;5.270;2022-12-31T06:55:15;1.02;;;0.63;;
47053;SDS011;32811;52.382;5.270;2022-12-31T06:57:42;0.50;;;0.50;;
47053;SDS011;32811;52.382;5.270;2022-12-31T07:00:10;0.20;;;0.20;;
47053;SDS011;32811;52.382;5.270;2022-12-31T07:08:24;0.40;;;0.20;;
47053;SDS011;32811;52.382;5.270;2022-12-31T07:13:58;0.10;;;0.10;;
47053;SDS011;32811;52.382;5.270;2022-12-31T07:21:45;0.20;;;0.20;;
47053;SDS011;32811;52.382;5.270;2022-12-31T07:24:14;1.52;;;0.40;;
47053;SDS011;32811;52.382;5.270;2022-12-31T07:40:21;1.27;;;0.88;;
47053;SDS011;32811;52.382;5.270;2022-12-31T07:48:13;2.08;;;0.60;;
47053;SDS011;32811;52.382;5.270;2022-12-31T07:50:48;1.27;;;0.80;;
47053;SDS011;32811;52.382;5.270;2022-12-31T07:53:15;0.70;;;0.50;;
47053;SDS011;32811;52.382;5.270;2022-12-31T07:55:41;0.82;;;0.77;;
47053;SDS011;32811;52.382;5.270;2022-12-31T07:58:18;2.75;;;0.30;;
47053;SDS011;32811;52.382;5.270;2022-12-31T08:00:50;0.45;;;0.30;;
47053;SDS011;32811;52.382;5.270;2022-12-31T08:06:06;2.47;;;0.28;;
47053;SDS011;32811;52.382;5.270;2022-12-31T08:08:48;4.72;;;0.40;;
47053;SDS011;32811;52.382;5.270;2022-12-31T08:14:04;1.98;;;0.50;;
47053;SDS011;32811;52.382;5.270;2022-12-31T08:16:35;2.05;;;0.38;;
47053;SDS011;32811;52.382;5.270;2022-12-31T08:19:02;3.22;;;0.10;;
47053;SDS011;32811;52.382;5.270;2022-12-31T08:21:45;3.03;;;0.20;;
47053;SDS011;32811;52.382;5.270;2022-12-31T08:24:29;1.02;;;0.20;;
47053;SDS011;32811;52.382;5.270;2022-12-31T08:29:39;0.60;;;0.20;;
47053;SDS011;32811;52.382;5.270;2022-12-31T08:38:14;3.08;;;0.20;;
47053;SDS011;32811;52.382;5.270;2022-12-31T08:49:43;0.30;;;0.10;;
47053;SDS011;32811;52.382;5.270;2022-12-31T08:52:12;0.68;;;0.20;;
47053;SDS011;32811;52.382;5.270;2022-12-31T08:54:45;2.53;;;0.80;;
47053;SDS011;32811;52.382;5.270;2022-12-31T08:57:15;1.45;;;0.05;;
47053;SDS011;32811;52.382;5.270;2022-12-31T09:13:18;1.02;;;0.20;;
47053;SDS011;32811;52.382;5.270;2022-12-31T09:18:44;3.30;;;0.40;;
47053;SDS011;32811;52.382;5.270;2022-12-31T09:21:12;2.10;;;0.20;;
47053;SDS011;32811;52.382;5.270;2022-12-31T09:23:40;2.35;;;0.70;;
47053;SDS011;32811;52.382;5.270;2022-12-31T09:26:26;7.72;;;0.95;;
47053;SDS011;32811;52.382;5.270;2022-12-31T09:31:51;3.85;;;0.68;;
47053;SDS011;32811;52.382;5.270;2022-12-31T09:34:26;2.28;;;0.63;;
47053;SDS011;32811;52.382;5.270;2022-12-31T09:37:12;5.03;;;1.65;;
47053;SDS011;32811;52.382;5.270;2022-12-31T09:39:43;8.15;;;0.50;;
47053;SDS011;32811;52.382;5.270;2022-12-31T10:04:28;4.18;;;0.50;;
47053;SDS011;32811;52.382;5.270;2022-12-31T10:07:02;1.85;;;0.47;;
47053;SDS011;32811;52.382;5.270;2022-12-31T10:12:37;12.88;;;1.70;;
47053;SDS011;32811;52.382;5.270;2022-12-31T10:23:40;5.55;;;0.95;;
47053;SDS011;32811;52.382;5.270;2022-12-31T10:28:55;2.97;;;0.60;;
47053;SDS011;32811;52.382;5.270;2022-12-31T10:34:44;3.95;;;1.00;;
47053;SDS011;32811;52.382;5.270;2022-12-31T10:37:35;2.38;;;0.50;;
47053;SDS011;32811;52.382;5.270;2022-12-31T10:57:46;2.30;;;0.75;;
47053;SDS011;32811;52.382;5.270;2022-12-31T11:00:18;3.20;;;0.60;;
47053;SDS011;32811;52.382;5.270;2022-12-31T11:13:38;2.50;;;0.70;;
47053;SDS011;32811;52.382;5.270;2022-12-31T11:27:41;3.90;;;0.68;;
47053;SDS011;32811;52.382;5.270;2022-12-31T11:38:09;4.57;;;0.75;;
47053;SDS011;32811;52.382;5.270;2022-12-31T11:43:26;5.80;;;0.70;;
47053;SDS011;32811;52.382;5.270;2022-12-31T11:51:34;2.17;;;0.40;;
47053;SDS011;32811;52.382;5.270;2022-12-31T11:57:16;3.22;;;0.65;;
47053;SDS011;32811;52.382;5.270;2022-12-31T11:59:55;1.35;;;0.22;;
47053;SDS011;32811;52.382;5.270;2022-12-31T12:02:34;1.35;;;0.43;;
47053;SDS011;32811;52.382;5.270;2022-12-31T12:05:04;1.42;;;0.60;;
47053;SDS011;32811;52.382;5.270;2022-12-31T12:07:36;0.97;;;0.30;;
47053;SDS011;32811;52.382;5.270;2022-12-31T12:10:06;1.45;;;0.30;;
47053;SDS011;32811;52.382;5.270;2022-12-31T12:13:22;1.05;;;0.40;;
47053;SDS011;32811;52.382;5.270;2022-12-31T12:15:54;1.90;;;0.40;;
47053;SDS011;32811;52.382;5.270;2022-12-31T12:18:25;3.45;;;0.47;;
47053;SDS011;32811;52.382;5.270;2022-12-31T12:21:00;2.38;;;0.80;;
47053;SDS011;32811;52.382;5.270;2022-12-31T12:23:32;1.60;;;0.40;;
47053;SDS011;32811;52.382;5.270;2022-12-31T12:25:59;1.33;;;0.20;;
47053;SDS011;32811;52.382;5.270;2022-12-31T12:28:27;4.05;;;0.30;;
47053;SDS011;32811;52.382;5.270;2022-12-31T12:31:00;5.50;;;0.70;;
47053;SDS011;32811;52.382;5.270;2022-12-31T12:33:29;3.70;;;0.50;;
47053;SDS011;32811;52.382;5.270;2022-12-31T12:36:08;0.63;;;0.43;;
47053;SDS011;32811;52.382;5.270;2022-12-31T12:38:37;1.05;;;0.40;;
47053;SDS011;32811;52.382;5.270;2022-12-31T12:41:05;3.10;;;0.55;;
47053;SDS011;32811;52.382;5.270;2022-12-31T12:43:35;1.67;;;1.05;;
47053;SDS011;32811;52.382;5.270;2022-12-31T12:46:04;1.33;;;0.60;;
47053;SDS011;32811;52.382;5.270;2022-12-31T12:48:35;2.22;;;0.50;;
47053;SDS011;32811;52.382;5.270;2022-12-31T12:54:23;2.95;;;1.63;;
47053;SDS011;32811;52.382;5.270;2022-12-31T13:00:06;4.97;;;0.90;;
47053;SDS011;32811;52.382;5.270;2022-12-31T13:11:31;2.97;;;0.75;;
47053;SDS011;32811;52.382;5.270;2022-12-31T13:16:33;3.60;;;0.50;;
47053;SDS011;32811;52.382;5.270;2022-12-31T13:27:04;6.45;;;2.38;;
47053;SDS011;32811;52.382;5.270;2022-12-31T13:29:49;5.10;;;1.20;;
47053;SDS011;32811;52.382;5.270;2022-12-31T13:32:21;3.60;;;1.40;;
47053;SDS011;32811;52.382;5.270;2022-12-31T13:34:55;6.28;;;1.75;;
47053;SDS011;32811;52.382;5.270;2022-12-31T13:37:32;5.90;;;1.63;;
47053;SDS011;32811;52.382;5.270;2022-12-31T13:40:20;4.25;;;1.70;;
47053;SDS011;32811;52.382;5.270;2022-12-31T13:42:53;3.88;;;1.17;;
47053;SDS011;32811;52.382;5.270;2022-12-31T13:45:29;2.45;;;1.10;;
47053;SDS011;32811;52.382;5.270;2022-12-31T13:48:05;2.80;;;1.10;;
47053;SDS011;32811;52.382;5.270;2022-12-31T13:50:41;7.40;;;1.10;;
47053;SDS011;32811;52.382;5.270;2022-12-31T13:53:16;3.85;;;1.10;;
47053;SDS011;32811;52.382;5.270;2022-12-31T13:55:59;5.40;;;1.80;;
47053;SDS011;32811;52.382;5.270;2022-12-31T14:01:05;7.43;;;2.10;;
47053;SDS011;32811;52.382;5.270;2022-12-31T14:08:44;6.78;;;1.40;;
47053;SDS011;32811;52.382;5.270;2022-12-31T14:16:48;6.90;;;1.10;;
47053;SDS011;32811;52.382;5.270;2022-12-31T14:19:49;5.30;;;1.58;;
47053;SDS011;32811;52.382;5.270;2022-12-31T14:22:30;7.05;;;1.63;;
47053;SDS011;32811;52.382;5.270;2022-12-31T14:25:04;2.95;;;0.73;;
47053;SDS011;32811;52.382;5.270;2022-12-31T14:27:43;3.60;;;0.93;;
47053;SDS011;32811;52.382;5.270;2022-12-31T14:30:19;6.28;;;1.33;;
47053;SDS011;32811;52.382;5.270;2022-12-31T14:35:38;3.33;;;0.90;;
47053;SDS011;32811;52.382;5.270;2022-12-31T14:41:10;3.45;;;0.90;;
47053;SDS011;32811;52.382;5.270;2022-12-31T14:43:48;8.00;;;1.45;;
47053;SDS011;32811;52.382;5.270;2022-12-31T14:49:28;6.40;;;1.20;;
47053;SDS011;32811;52.382;5.270;2022-12-31T14:57:35;3.80;;;1.58;;
47053;SDS011;32811;52.382;5.270;2022-12-31T15:00:33;5.63;;;1.35;;
47053;SDS011;32811;52.382;5.270;2022-12-31T15:03:06;3.08;;;1.70;;
47053;SDS011;32811;52.382;5.270;2022-12-31T15:17:09;7.00;;;1.20;;
47053;SDS011;32811;52.382;5.270;2022-12-31T15:28:06;8.68;;;3.22;;
47053;SDS011;32811;52.382;5.270;2022-12-31T15:30:52;7.60;;;3.25;;
47053;SDS011;32811;52.382;5.270;2022-12-31T15:33:26;12.43;;;2.17;;
47053;SDS011;32811;52.382;5.270;2022-12-31T15:36:07;7.05;;;3.70;;
47053;SDS011;32811;52.382;5.270;2022-12-31T15:38:41;9.02;;;2.60;;
47053;SDS011;32811;52.382;5.270;2022-12-31T15:41:13;8.43;;;3.25;;
47053;SDS011;32811;52.382;5.270;2022-12-31T15:44:01;8.68;;;2.03;;
47053;SDS011;32811;52.382;5.270;2022-12-31T15:46:39;9.05;;;2.35;;
47053;SDS011;32811;52.382;5.270;2022-12-31T15:49:12;11.90;;;4.15;;
47053;SDS011;32811;52.382;5.270;2022-12-31T15:51:45;8.32;;;2.85;;
47053;SDS011;32811;52.382;5.270;2022-12-31T15:54:22;10.07;;;3.90;;
47053;SDS011;32811;52.382;5.270;2022-12-31T15:57:11;13.13;;;4.85;;
47053;SDS011;32811;52.382;5.270;2022-12-31T15:59:43;11.95;;;3.50;;
47053;SDS011;32811;52.382;5.270;2022-12-31T16:02:16;13.73;;;4.97;;
47053;SDS011;32811;52.382;5.270;2022-12-31T16:04:47;8.20;;;3.80;;
47053;SDS011;32811;52.382;5.270;2022-12-31T16:07:15;12.50;;;5.13;;
47053;SDS011;32811;52.382;5.270;2022-12-31T16:09:46;14.23;;;5.65;;
47053;SDS011;32811;52.382;5.270;2022-12-31T16:12:18;23.13;;;11.93;;
47053;SDS011;32811;52.382;5.270;2022-12-31T16:14:56;18.50;;;8.35;;
47053;SDS011;32811;52.382;5.270;2022-12-31T16:17:28;12.98;;;5.47;;
47053;SDS011;32811;52.382;5.270;2022-12-31T16:19:57;7.88;;;3.83;;
47053;SDS011;32811;52.382;5.270;2022-12-31T16:22:34;16.92;;;4.47;;
47053;SDS011;32811;52.382;5.270;2022-12-31T16:25:02;24.25;;;5.75;;
47053;SDS011;32811;52.382;5.270;2022-12-31T16:27:51;11.93;;;4.28;;
47053;SDS011;32811;52.382;5.270;2022-12-31T16:32:48;22.17;;;11.25;;
47053;SDS011;32811;52.382;5.270;2022-12-31T16:35:24;29.17;;;13.45;;
47053;SDS011;32811;52.382;5.270;2022-12-31T16:40:43;20.02;;;8.38;;
47053;SDS011;32811;52.382;5.270;2022-12-31T16:43:25;21.25;;;8.63;;
47053;SDS011;32811;52.382;5.270;2022-12-31T16:45:53;22.00;;;6.50;;
47053;SDS011;32811;52.382;5.270;2022-12-31T16:48:23;13.13;;;6.25;;
47053;SDS011;32811;52.382;5.270;2022-12-31T16:50:52;9.90;;;5.18;;
47053;SDS011;32811;52.382;5.270;2022-12-31T16:53:21;13.52;;;5.60;;
47053;SDS011;32811;52.382;5.270;2022-12-31T16:58:32;17.50;;;6.95;;
47053;SDS011;32811;52.382;5.270;2022-12-31T17:01:06;11.30;;;6.25;;
47053;SDS011;32811;52.382;5.270;2022-12-31T17:03:52;12.05;;;4.90;;
47053;SDS011;32811;52.382;5.270;2022-12-31T17:06:23;11.63;;;8.35;;
47053;SDS011;32811;52.382;5.270;2022-12-31T17:13:56;17.80;;;9.82;;
47053;SDS011;32811;52.382;5.270;2022-12-31T17:16:32;15.40;;;6.00;;
47053;SDS011;32811;52.382;5.270;2022-12-31T17:19:01;20.17;;;8.93;;
47053;SDS011;32811;52.382;5.270;2022-12-31T17:21:29;16.00;;;7.55;;
47053;SDS011;32811;52.382;5.270;2022-12-31T17:24:00;12.90;;;5.75;;
47053;SDS011;32811;52.382;5.270;2022-12-31T17:26:32;14.88;;;8.30;;
47053;SDS011;32811;52.382;5.270;2022-12-31T17:29:01;16.80;;;8.23;;
47053;SDS011;32811;52.382;5.270;2022-12-31T17:34:17;26.35;;;13.70;;
47053;SDS011;32811;52.382;5.270;2022-12-31T17:39:44;17.58;;;9.52;;
47053;SDS011;32811;52.382;5.270;2022-12-31T17:42:16;24.65;;;13.50;;
47053;SDS011;32811;52.382;5.270;2022-12-31T17:44:52;26.83;;;12.05;;
47053;SDS011;32811;52.382;5.270;2022-12-31T17:47:21;15.52;;;10.88;;
47053;SDS011;32811;52.382;5.270;2022-12-31T17:49:47;25.17;;;11.43;;
47053;SDS011;32811;52.382;5.270;2022-12-31T17:52:14;14.23;;;5.30;;
47053;SDS011;32811;52.382;5.270;2022-12-31T17:54:41;13.93;;;6.97;;
47053;SDS011;32811;52.382;5.270;2022-12-31T17:57:13;18.13;;;7.28;;
47053;SDS011;32811;52.382;5.270;2022-12-31T17:59:48;14.02;;;6.68;;
47053;SDS011;32811;52.382;5.270;2022-12-31T18:02:15;16.08;;;5.13;;
47053;SDS011;32811;52.382;5.270;2022-12-31T18:04:42;16.88;;;5.20;;
47053;SDS011;32811;52.382;5.270;2022-12-31T18:07:09;14.75;;;5.95;;
47053;SDS011;32811;52.382;5.270;2022-12-31T18:09:36;12.82;;;6.72;;
47053;SDS011;32811;52.382;5.270;2022-12-31T18:12:04;24.33;;;6.25;;
47053;SDS011;32811;52.382;5.270;2022-12-31T18:14:32;8.75;;;4.70;;
47053;SDS011;32811;52.382;5.270;2022-12-31T18:16:59;24.98;;;10.10;;
47053;SDS011;32811;52.382;5.270;2022-12-31T18:19:26;13.40;;;7.20;;
47053;SDS011;32811;52.382;5.270;2022-12-31T18:22:13;12.30;;;5.55;;
47053;SDS011;32811;52.382;5.270;2022-12-31T18:24:41;10.75;;;5.65;;
47053;SDS011;32811;52.382;5.270;2022-12-31T18:27:12;12.85;;;5.68;;
47053;SDS011;32811;52.382;5.270;2022-12-31T18:29:41;25.10;;;4.93;;
47053;SDS011;32811;52.382;5.270;2022-12-31T18:32:21;15.68;;;5.25;;
47053;SDS011;32811;52.382;5.270;2022-12-31T18:34:50;15.38;;;5.35;;
47053;SDS011;32811;52.382;5.270;2022-12-31T18:37:17;15.07;;;5.60;;
47053;SDS011;32811;52.382;5.270;2022-12-31T18:39:47;10.80;;;4.78;;
47053;SDS011;32811;52.382;5.270;2022-12-31T18:42:15;16.00;;;6.28;;
47053;SDS011;32811;52.382;5.270;2022-12-31T18:44:43;14.40;;;3.90;;
47053;SDS011;32811;52.382;5.270;2022-12-31T18:47:12;10.38;;;5.47;;
47053;SDS011;32811;52.382;5.270;2022-12-31T18:49:40;11.35;;;4.40;;
47053;SDS011;32811;52.382;5.270;2022-12-31T18:52:11;9.50;;;3.95;;
47053;SDS011;32811;52.382;5.270;2022-12-31T18:54:40;11.10;;;4.53;;
47053;SDS011;32811;52.382;5.270;2022-12-31T18:57:10;13.90;;;4.53;;
47053;SDS011;32811;52.382;5.270;2022-12-31T18:59:38;10.88;;;4.63;;
47053;SDS011;32811;52.382;5.270;2022-12-31T19:02:18;13.35;;;5.13;;
47053;SDS011;32811;52.382;5.270;2022-12-31T19:04:46;12.80;;;6.63;;
47053;SDS011;32811;52.382;5.270;2022-12-31T19:07:13;12.32;;;4.80;;
47053;SDS011;32811;52.382;5.270;2022-12-31T19:09:39;10.55;;;4.50;;
47053;SDS011;32811;52.382;5.270;2022-12-31T19:12:12;11.98;;;4.30;;
47053;SDS011;32811;52.382;5.270;2022-12-31T19:14:39;10.10;;;4.57;;
47053;SDS011;32811;52.382;5.270;2022-12-31T19:17:06;12.85;;;4.68;;
47053;SDS011;32811;52.382;5.270;2022-12-31T19:19:32;19.90;;;9.52;;
47053;SDS011;32811;52.382;5.270;2022-12-31T19:22:00;14.27;;;4.80;;
47053;SDS011;32811;52.382;5.270;2022-12-31T19:24:26;18.58;;;6.15;;
47053;SDS011;32811;52.382;5.270;2022-12-31T19:26:53;17.48;;;11.10;;
47053;SDS011;32811;52.382;5.270;2022-12-31T19:29:21;14.57;;;6.28;;
47053;SDS011;32811;52.382;5.270;2022-12-31T19:31:49;13.35;;;5.55;;
47053;SDS011;32811;52.382;5.270;2022-12-31T19:34:16;13.68;;;5.35;;
47053;SDS011;32811;52.382;5.270;2022-12-31T19:36:43;13.00;;;6.88;;
47053;SDS011;32811;52.382;5.270;2022-12-31T19:39:12;11.43;;;4.68;;
47053;SDS011;32811;52.382;5.270;2022-12-31T19:41:41;13.80;;;6.32;;
47053;SDS011;32811;52.382;5.270;2022-12-31T19:44:15;11.13;;;4.20;;
47053;SDS011;32811;52.382;5.270;2022-12-31T19:46:43;7.72;;;4.30;;
47053;SDS011;32811;52.382;5.270;2022-12-31T19:49:11;13.40;;;5.05;;
47053;SDS011;32811;52.382;5.270;2022-12-31T19:51:39;24.45;;;8.63;;
47053;SDS011;32811;52.382;5.270;2022-12-31T19:54:07;10.85;;;4.95;;
47053;SDS011;32811;52.382;5.270;2022-12-31T19:56:34;17.85;;;5.95;;
47053;SDS011;32811;52.382;5.270;2022-12-31T19:59:05;13.50;;;5.47;;